createdAt,value
2018-08-18T00:00:38.085Z,18.93
2018-08-18T00:03:08.965Z,18.79
2018-08-18T00:05:38.960Z,18.74
2018-08-18T00:08:09.319Z,18.75
2018-08-18T00:10:39.440Z,18.70
2018-08-18T00:13:09.547Z,18.69
2018-08-18T00:15:39.536Z,18.58
2018-08-18T00:18:09.350Z,18.65
2018-08-18T00:20:39.197Z,18.58
2018-08-18T00:23:09.312Z,18.59
2018-08-18T00:25:39.205Z,18.53
2018-08-18T00:28:24.187Z,18.39
2018-08-18T00:30:54.711Z,18.30
2018-08-18T00:33:25.275Z,18.31
2018-08-18T00:35:55.156Z,18.34
2018-08-18T00:38:24.952Z,18.40
2018-08-18T00:40:55.628Z,18.30
2018-08-18T00:43:25.613Z,18.17
2018-08-18T00:45:55.640Z,18.14
2018-08-18T00:48:25.917Z,18.26
2018-08-18T00:50:55.857Z,18.15
2018-08-18T00:53:25.744Z,18.13
2018-08-18T00:55:55.824Z,18.10
2018-08-18T00:58:29.862Z,18.05
2018-08-18T01:01:04.801Z,17.99
2018-08-18T01:03:43.216Z,18.02
2018-08-18T01:06:26.183Z,17.94
2018-08-18T01:08:57.395Z,17.86
2018-08-18T01:11:27.691Z,17.75
2018-08-18T01:13:58.860Z,17.79
2018-08-18T01:16:28.877Z,17.76
2018-08-18T01:18:59.368Z,17.75
2018-08-18T01:21:29.305Z,17.77
2018-08-18T01:23:59.323Z,17.81
2018-08-18T01:26:29.425Z,17.88
2018-08-18T01:29:13.501Z,17.76
2018-08-18T01:31:43.400Z,17.85
2018-08-18T01:34:13.301Z,17.75
2018-08-18T01:36:43.519Z,17.82
2018-08-18T01:39:14.806Z,17.85
2018-08-18T01:41:44.860Z,17.76
2018-08-18T01:44:18.459Z,17.87
2018-08-18T01:46:50.869Z,17.84
2018-08-18T01:49:27.717Z,17.75
2018-08-18T01:51:59.903Z,17.66
2018-08-18T01:54:29.875Z,17.59
2018-08-18T01:57:04.705Z,17.55
2018-08-18T01:59:34.525Z,17.61
2018-08-18T02:02:04.641Z,17.60
2018-08-18T02:04:34.695Z,17.47
2018-08-18T02:07:16.588Z,17.46
2018-08-18T02:09:46.740Z,17.41
2018-08-18T02:12:16.728Z,17.34
2018-08-18T02:14:46.572Z,17.37
2018-08-18T02:17:36.411Z,17.29
2018-08-18T02:20:09.885Z,17.23
2018-08-18T02:22:39.833Z,17.21
2018-08-18T02:25:09.793Z,17.10
2018-08-18T02:27:39.607Z,17.07
2018-08-18T02:30:17.664Z,16.98
2018-08-18T02:32:47.716Z,16.91
2018-08-18T02:35:17.840Z,16.89
2018-08-18T02:37:47.596Z,16.84
2018-08-18T02:40:18.917Z,16.80
2018-08-18T02:42:48.927Z,16.74
2018-08-18T02:45:18.937Z,16.63
2018-08-18T02:47:49.751Z,16.64
2018-08-18T02:50:19.770Z,16.61
2018-08-18T02:52:49.834Z,16.53
2018-08-18T02:55:19.705Z,16.59
2018-08-18T02:57:49.519Z,16.47
2018-08-18T03:00:25.574Z,16.47
2018-08-18T03:02:55.396Z,16.49
2018-08-18T03:05:25.419Z,16.38
2018-08-18T03:07:55.443Z,16.45
2018-08-18T03:10:26.239Z,16.49
2018-08-18T03:13:00.961Z,16.52
2018-08-18T03:15:58.776Z,16.54
2018-08-18T03:18:49.679Z,16.61
2018-08-18T03:21:25.501Z,16.67
2018-08-18T03:24:12.866Z,16.56
2018-08-18T03:26:49.857Z,16.47
2018-08-18T03:29:20.826Z,16.38
2018-08-18T03:31:50.968Z,16.36
2018-08-18T03:34:21.247Z,16.30
2018-08-18T03:36:54.444Z,16.28
2018-08-18T03:39:29.560Z,16.42
2018-08-18T03:42:01.601Z,16.40
2018-08-18T03:44:31.688Z,16.29
2018-08-18T03:47:01.623Z,16.30
2018-08-18T03:49:31.411Z,16.31
2018-08-18T03:52:01.620Z,16.37
2018-08-18T03:54:31.449Z,16.34
2018-08-18T03:57:01.913Z,16.23
2018-08-18T03:59:31.849Z,16.22
2018-08-18T04:02:02.433Z,16.17
2018-08-18T04:04:34.520Z,16.17
2018-08-18T04:07:05.664Z,16.16
2018-08-18T04:09:37.034Z,16.14
2018-08-18T04:12:09.944Z,15.99
2018-08-18T04:14:41.144Z,15.90
2018-08-18T04:17:27.544Z,15.84
2018-08-18T04:19:57.354Z,15.85
2018-08-18T04:22:27.208Z,15.80
2018-08-18T04:24:57.669Z,15.87
2018-08-18T04:27:39.525Z,15.86
2018-08-18T04:30:18.603Z,15.82
2018-08-18T04:32:57.448Z,15.94
2018-08-18T04:35:28.342Z,16.07
2018-08-18T04:37:59.272Z,16.14
2018-08-18T04:40:29.642Z,16.17
2018-08-18T04:43:00.933Z,16.20
2018-08-18T04:45:31.180Z,16.25
2018-08-18T04:48:01.150Z,16.38
2018-08-18T04:50:31.303Z,16.41
2018-08-18T04:53:01.539Z,16.46
2018-08-18T04:55:31.906Z,16.55
2018-08-18T04:58:01.828Z,16.62
2018-08-18T05:00:31.901Z,16.64
2018-08-18T05:03:01.835Z,16.68
2018-08-18T05:05:32.851Z,16.73
2018-08-18T05:08:02.833Z,16.76
2018-08-18T05:10:32.621Z,16.80
2018-08-18T05:13:02.442Z,16.86
2018-08-18T05:15:32.374Z,16.98
2018-08-18T05:18:02.424Z,17.05
2018-08-18T05:20:32.352Z,17.15
2018-08-18T05:23:26.204Z,17.16
2018-08-18T05:25:56.122Z,17.21
2018-08-18T05:28:26.032Z,17.43
2018-08-18T05:30:55.913Z,17.58
2018-08-18T05:33:25.907Z,17.76
2018-08-18T05:35:56.248Z,17.91
2018-08-18T05:38:26.447Z,18.01
2018-08-18T05:40:56.471Z,18.06
2018-08-18T05:43:26.865Z,18.30
2018-08-18T05:45:56.676Z,18.74
2018-08-18T05:48:26.649Z,18.93
2018-08-18T05:50:57.623Z,18.93
2018-08-18T05:53:28.875Z,18.96
2018-08-18T05:55:59.379Z,18.99
2018-08-18T05:58:39.790Z,19.56
2018-08-18T06:01:34.778Z,20.57
2018-08-18T06:04:09.173Z,21.06
2018-08-18T06:06:39.236Z,20.85
2018-08-18T06:09:13.397Z,20.43
2018-08-18T06:11:43.716Z,20.20
2018-08-18T06:14:14.531Z,20.13
2018-08-18T06:16:44.768Z,20.14
2018-08-18T06:19:14.884Z,20.18
2018-08-18T06:21:44.714Z,20.22
2018-08-18T06:24:14.816Z,20.15
2018-08-18T06:26:44.756Z,20.18
2018-08-18T06:29:15.253Z,20.11
2018-08-18T06:31:59.441Z,20.19
2018-08-18T06:34:31.545Z,20.12
2018-08-18T06:37:02.059Z,20.08
2018-08-18T06:39:51.193Z,20.08
2018-08-18T06:42:45.831Z,20.10
2018-08-18T06:45:18.778Z,20.11
2018-08-18T06:47:48.694Z,20.11
2018-08-18T06:50:19.567Z,20.18
2018-08-18T06:52:49.548Z,20.21
2018-08-18T06:55:20.660Z,20.27
2018-08-18T06:57:53.859Z,20.30
2018-08-18T07:00:25.118Z,20.40
2018-08-18T07:02:54.969Z,20.42
2018-08-18T07:05:24.878Z,20.45
2018-08-18T07:07:54.754Z,20.51
2018-08-18T07:10:31.304Z,20.52
2018-08-18T07:13:05.162Z,20.57
2018-08-18T07:15:37.518Z,20.58
2018-08-18T07:18:10.926Z,20.69
2018-08-18T07:20:41.223Z,20.69
2018-08-18T07:23:11.055Z,20.76
2018-08-18T07:25:49.439Z,20.84
2018-08-18T07:28:23.785Z,20.93
2018-08-18T07:30:54.189Z,20.95
2018-08-18T07:33:24.262Z,21.01
2018-08-18T07:35:54.291Z,21.00
2018-08-18T07:38:24.198Z,21.06
2018-08-18T07:40:55.757Z,21.12
2018-08-18T07:43:32.330Z,21.15
2018-08-18T07:46:03.785Z,21.25
2018-08-18T07:48:33.937Z,21.17
2018-08-18T07:51:03.765Z,21.21
2018-08-18T07:53:33.750Z,21.27
2018-08-18T07:56:03.923Z,21.36
2018-08-18T07:58:33.722Z,21.42
2018-08-18T08:01:03.681Z,21.48
2018-08-18T08:03:33.876Z,21.52
2018-08-18T08:06:03.769Z,21.58
2018-08-18T08:08:38.761Z,21.76
2018-08-18T08:11:13.612Z,21.88
2018-08-18T08:13:43.667Z,21.78
2018-08-18T08:16:13.426Z,21.82
2018-08-18T08:18:44.450Z,21.89
2018-08-18T08:21:14.651Z,21.97
2018-08-18T08:23:44.477Z,22.05
2018-08-18T08:26:14.417Z,22.08
2018-08-18T08:28:44.290Z,22.17
2018-08-18T08:31:14.190Z,22.30
2018-08-18T08:33:44.115Z,22.39
2018-08-18T08:36:15.888Z,22.35
2018-08-18T08:38:58.057Z,22.48
2018-08-18T08:41:30.620Z,22.58
2018-08-18T08:44:00.776Z,22.65
2018-08-18T08:46:30.742Z,22.47
2018-08-18T08:49:02.240Z,22.50
2018-08-18T08:51:32.409Z,22.56
2018-08-18T08:54:02.330Z,22.63
2018-08-18T08:56:39.160Z,22.63
2018-08-18T08:59:09.243Z,22.73
2018-08-18T09:01:39.068Z,22.79
2018-08-18T09:04:09.128Z,22.94
2018-08-18T09:06:43.119Z,22.91
2018-08-18T09:09:13.403Z,22.89
2018-08-18T09:11:43.293Z,22.70
2018-08-18T09:14:13.157Z,22.81
2018-08-18T09:16:43.040Z,22.88
2018-08-18T09:19:12.928Z,23.01
2018-08-18T09:21:48.408Z,23.04
2018-08-18T09:24:18.570Z,23.17
2018-08-18T09:26:54.341Z,23.20
2018-08-18T09:29:24.914Z,23.09
2018-08-18T09:31:54.976Z,23.08
2018-08-18T09:34:24.834Z,23.13
2018-08-18T09:36:54.726Z,23.13
2018-08-18T09:39:33.375Z,23.28
2018-08-18T09:42:07.758Z,23.23
2018-08-18T09:44:44.728Z,23.20
2018-08-18T09:47:15.027Z,23.20
2018-08-18T09:49:45.392Z,23.22
2018-08-18T09:52:17.862Z,23.24
2018-08-18T09:54:48.095Z,23.30
2018-08-18T09:57:18.213Z,23.35
2018-08-18T09:59:48.096Z,23.43
2018-08-18T10:02:18.101Z,23.46
2018-08-18T10:04:48.097Z,23.58
2018-08-18T10:07:18.249Z,23.67
2018-08-18T10:09:48.480Z,23.68
2018-08-18T10:12:18.392Z,23.72
2018-08-18T10:14:48.592Z,23.79
2018-08-18T10:17:18.408Z,23.88
2018-08-18T10:19:48.315Z,23.74
2018-08-18T10:22:18.285Z,23.85
2018-08-18T10:24:48.353Z,23.99
2018-08-18T10:27:19.802Z,23.93
2018-08-18T10:29:49.723Z,23.94
2018-08-18T10:32:19.762Z,23.99
2018-08-18T10:34:49.809Z,23.90
2018-08-18T10:37:19.804Z,23.95
2018-08-18T10:39:51.628Z,24.18
2018-08-18T10:42:26.374Z,24.29
2018-08-18T10:45:03.588Z,24.41
2018-08-18T10:47:33.473Z,24.46
2018-08-18T10:50:27.005Z,24.52
2018-08-18T10:53:00.215Z,24.46
2018-08-18T10:55:30.702Z,24.36
2018-08-18T10:58:07.964Z,24.29
2018-08-18T11:00:38.018Z,24.49
2018-08-18T11:03:09.017Z,24.57
2018-08-18T11:05:38.951Z,24.66
2018-08-18T11:08:09.700Z,24.85
2018-08-18T11:10:41.740Z,24.89
2018-08-18T11:13:11.679Z,24.88
2018-08-18T11:15:41.535Z,24.86
2018-08-18T11:18:11.440Z,24.82
2018-08-18T11:20:41.375Z,24.81
2018-08-18T11:23:14.465Z,24.91
2018-08-18T11:25:52.868Z,24.90
2018-08-18T11:28:23.837Z,24.84
2018-08-18T11:30:55.065Z,24.86
2018-08-18T11:33:40.388Z,24.91
2018-08-18T11:36:11.423Z,24.70
2018-08-18T11:38:41.444Z,24.59
2018-08-18T11:41:11.664Z,24.45
2018-08-18T11:43:47.855Z,24.34
2018-08-18T11:46:17.732Z,24.32
2018-08-18T11:48:47.684Z,24.31
2018-08-18T11:51:17.632Z,24.45
2018-08-18T11:54:01.513Z,24.38
2018-08-18T11:56:33.140Z,24.37
2018-08-18T11:59:11.541Z,24.50
2018-08-18T12:01:42.486Z,24.57
2018-08-18T12:04:12.409Z,24.76
2018-08-18T12:06:47.450Z,24.70
2018-08-18T12:09:17.675Z,24.67
2018-08-18T12:11:50.210Z,24.65
2018-08-18T12:14:20.570Z,24.89
2018-08-18T12:16:50.597Z,24.78
2018-08-18T12:19:20.549Z,24.63
2018-08-18T12:21:50.623Z,24.63
2018-08-18T12:24:22.066Z,24.53
2018-08-18T12:27:08.628Z,24.51
2018-08-18T12:29:38.545Z,24.62
2018-08-18T12:32:27.556Z,24.63
2018-08-18T12:34:58.761Z,24.71
2018-08-18T12:37:29.224Z,24.81
2018-08-18T12:39:59.174Z,24.87
2018-08-18T12:42:29.816Z,24.97
2018-08-18T12:44:59.699Z,25.01
2018-08-18T12:47:29.746Z,24.94
2018-08-18T12:49:59.897Z,25.10
2018-08-18T12:52:40.559Z,25.31
2018-08-18T12:55:10.536Z,25.25
2018-08-18T12:57:41.890Z,25.34
2018-08-18T13:00:12.050Z,25.50
2018-08-18T13:02:48.757Z,25.66
2018-08-18T13:05:20.609Z,25.85
2018-08-18T13:07:50.674Z,25.89
2018-08-18T13:10:26.730Z,26.05
2018-08-18T13:12:57.561Z,26.19
2018-08-18T13:15:27.717Z,26.43
2018-08-18T13:17:57.958Z,26.53
2018-08-18T13:20:28.236Z,26.61
2018-08-18T13:22:58.242Z,26.74
2018-08-18T13:25:29.768Z,26.77
2018-08-18T13:28:00.393Z,26.44
2018-08-18T13:30:30.375Z,26.66
2018-08-18T13:33:00.440Z,26.95
2018-08-18T13:35:30.648Z,27.15
2018-08-18T13:38:00.493Z,27.10
2018-08-18T13:40:30.490Z,26.82
2018-08-18T13:43:00.752Z,27.03
2018-08-18T13:45:42.847Z,27.39
2018-08-18T13:48:13.666Z,27.70
2018-08-18T13:50:43.496Z,27.99
2018-08-18T13:53:13.407Z,28.11
2018-08-18T13:55:43.295Z,28.46
2018-08-18T13:58:13.590Z,28.60
2018-08-18T14:00:43.498Z,28.73
2018-08-18T14:03:28.610Z,28.86
2018-08-18T14:05:58.537Z,28.47
2018-08-18T14:08:28.650Z,28.48
2018-08-18T14:10:58.876Z,28.31
2018-08-18T14:13:30.060Z,27.86
2018-08-18T14:15:59.984Z,28.33
2018-08-18T14:18:30.068Z,28.68
2018-08-18T14:21:06.775Z,28.86
2018-08-18T14:23:36.860Z,28.15
2018-08-18T14:26:06.859Z,28.49
2018-08-18T14:28:36.879Z,28.35
2018-08-18T14:31:06.861Z,28.69
2018-08-18T14:33:36.746Z,28.86
2018-08-18T14:36:12.255Z,29.26
2018-08-18T14:38:44.103Z,29.70
2018-08-18T14:41:15.097Z,29.59
2018-08-18T14:43:45.020Z,29.75
2018-08-18T14:46:16.307Z,29.95
2018-08-18T14:48:46.267Z,29.89
2018-08-18T14:51:16.279Z,30.20
2018-08-18T14:53:46.111Z,30.31
2018-08-18T14:56:16.114Z,30.05
2018-08-18T14:58:46.098Z,29.85
2018-08-18T15:01:16.340Z,30.02
2018-08-18T15:03:46.351Z,30.09
2018-08-18T15:06:16.573Z,30.10
2018-08-18T15:08:46.662Z,29.83
2018-08-18T15:11:16.768Z,29.38
2018-08-18T15:13:46.735Z,29.44
2018-08-18T15:16:16.718Z,29.19
2018-08-18T15:18:46.637Z,28.83
2018-08-18T15:21:16.548Z,28.04
2018-08-18T15:23:46.484Z,27.52
2018-08-18T15:26:16.531Z,27.13
2018-08-18T15:28:46.751Z,26.97
2018-08-18T15:31:16.748Z,26.69
2018-08-18T15:33:47.138Z,26.35
2018-08-18T15:36:32.771Z,26.23
2018-08-18T15:39:03.059Z,26.23
2018-08-18T15:41:32.949Z,26.17
2018-08-18T15:44:06.455Z,25.98
2018-08-18T15:46:36.498Z,25.95
2018-08-18T15:49:06.565Z,25.84
2018-08-18T15:51:36.460Z,25.51
2018-08-18T15:54:06.285Z,25.50
2018-08-18T15:56:36.625Z,25.61
2018-08-18T15:59:06.711Z,25.66
2018-08-18T16:01:36.867Z,25.61
2018-08-18T16:04:06.908Z,25.61
2018-08-18T16:06:36.925Z,25.58
2018-08-18T16:09:09.521Z,25.61
2018-08-18T16:11:39.514Z,25.49
2018-08-18T16:14:09.415Z,25.34
2018-08-18T16:16:56.787Z,25.30
2018-08-18T16:19:27.399Z,25.24
2018-08-18T16:21:57.589Z,25.23
2018-08-18T16:24:43.720Z,25.26
2018-08-18T16:27:14.209Z,25.27
2018-08-18T16:29:44.326Z,25.26
2018-08-18T16:32:25.252Z,25.25
2018-08-18T16:35:01.229Z,25.16
2018-08-18T16:37:31.515Z,25.28
2018-08-18T16:40:01.604Z,25.17
2018-08-18T16:42:34.124Z,24.99
2018-08-18T16:45:04.407Z,24.99
2018-08-18T16:47:39.125Z,25.07
2018-08-18T16:50:09.047Z,25.01
2018-08-18T16:52:38.925Z,24.92
2018-08-18T16:55:09.227Z,24.91
2018-08-18T16:57:39.191Z,24.94
2018-08-18T17:00:09.158Z,24.93
2018-08-18T17:02:39.974Z,24.87
2018-08-18T17:05:10.701Z,24.89
2018-08-18T17:07:43.921Z,24.83
2018-08-18T17:10:14.087Z,24.76
2018-08-18T17:12:44.050Z,24.65
2018-08-18T17:15:14.036Z,24.67
2018-08-18T17:17:43.927Z,24.49
2018-08-18T17:20:13.962Z,24.49
2018-08-18T17:22:45.996Z,24.50
2018-08-18T17:25:16.008Z,24.43
2018-08-18T17:27:45.901Z,24.47
2018-08-18T17:30:15.809Z,24.32
2018-08-18T17:32:45.670Z,24.26
2018-08-18T17:35:15.436Z,24.24
2018-08-18T17:37:45.268Z,24.31
2018-08-18T17:40:15.287Z,24.16
2018-08-18T17:42:45.145Z,24.14
2018-08-18T17:45:14.983Z,23.93
2018-08-18T17:47:50.924Z,23.96
2018-08-18T17:50:20.888Z,23.95
2018-08-18T17:52:50.741Z,23.95
2018-08-18T17:55:20.679Z,24.02
2018-08-18T17:57:50.752Z,23.91
2018-08-18T18:00:22.697Z,23.86
2018-08-18T18:02:56.664Z,23.85
2018-08-18T18:05:31.487Z,23.59
2018-08-18T18:08:06.755Z,23.63
2018-08-18T18:10:38.490Z,23.39
2018-08-18T18:13:15.676Z,23.47
2018-08-18T18:15:47.207Z,23.31
2018-08-18T18:18:19.078Z,23.25
2018-08-18T18:20:50.676Z,23.25
2018-08-18T18:23:21.037Z,23.38
2018-08-18T18:25:50.955Z,23.22
2018-08-18T18:28:21.123Z,23.07
2018-08-18T18:30:54.009Z,23.05
2018-08-18T18:33:24.203Z,23.13
2018-08-18T18:35:54.329Z,23.01
2018-08-18T18:38:24.202Z,23.06
2018-08-18T18:40:54.314Z,22.93
2018-08-18T18:43:24.080Z,22.93
2018-08-18T18:45:54.744Z,22.96
2018-08-18T18:48:24.668Z,22.98
2018-08-18T18:50:54.805Z,22.98
2018-08-18T18:53:25.158Z,22.82
2018-08-18T18:55:55.358Z,22.76
2018-08-18T18:58:25.375Z,22.72
2018-08-18T19:01:11.389Z,22.64
2018-08-18T19:03:41.319Z,22.47
2018-08-18T19:06:11.367Z,22.51
2018-08-18T19:08:59.643Z,22.50
2018-08-18T19:11:29.616Z,22.40
2018-08-18T19:13:59.912Z,22.39
2018-08-18T19:16:30.100Z,22.44
2018-08-18T19:19:00.059Z,22.44
2018-08-18T19:21:34.380Z,22.18
2018-08-18T19:24:18.113Z,22.24
2018-08-18T19:26:59.253Z,22.26
2018-08-18T19:29:29.956Z,22.19
2018-08-18T19:32:01.017Z,22.21
2018-08-18T19:34:31.075Z,22.26
2018-08-18T19:37:08.605Z,22.14
2018-08-18T19:39:39.104Z,22.14
2018-08-18T19:42:14.334Z,22.18
2018-08-18T19:44:46.667Z,22.16
2018-08-18T19:47:24.437Z,22.12
2018-08-18T19:49:54.253Z,22.15
2018-08-18T19:52:24.940Z,22.04
2018-08-18T19:54:54.837Z,22.05
2018-08-18T19:57:30.033Z,22.01
2018-08-18T20:00:11.184Z,21.92
2018-08-18T20:02:53.383Z,21.94
2018-08-18T20:05:23.955Z,21.94
2018-08-18T20:07:54.093Z,21.87
2018-08-18T20:10:24.145Z,21.90
2018-08-18T20:12:54.239Z,21.89
2018-08-18T20:15:24.233Z,21.83
2018-08-18T20:17:54.224Z,21.78
2018-08-18T20:20:25.464Z,21.78
2018-08-18T20:22:55.303Z,21.74
2018-08-18T20:25:25.215Z,21.75
2018-08-18T20:27:55.729Z,21.74
2018-08-18T20:30:25.617Z,21.73
2018-08-18T20:32:55.649Z,21.70
2018-08-18T20:35:28.205Z,21.67
2018-08-18T20:37:58.441Z,21.65
2018-08-18T20:40:29.248Z,21.66
2018-08-18T20:42:59.236Z,21.66
2018-08-18T20:46:04.482Z,21.65
2018-08-18T20:48:34.569Z,21.63
2018-08-18T20:51:04.427Z,21.62
2018-08-18T20:53:34.342Z,21.63
2018-08-18T20:56:04.616Z,21.55
2018-08-18T20:58:35.434Z,21.54
2018-08-18T21:01:05.424Z,21.51
2018-08-18T21:03:49.359Z,21.46
2018-08-18T21:06:19.837Z,21.41
2018-08-18T21:08:50.000Z,21.41
2018-08-18T21:11:20.145Z,21.36
2018-08-18T21:13:51.328Z,21.31
2018-08-18T21:16:22.176Z,21.29
2018-08-18T21:18:52.383Z,21.29
2018-08-18T21:21:47.018Z,21.25
2018-08-18T21:24:16.915Z,21.24
2018-08-18T21:26:47.852Z,21.20
2018-08-18T21:31:51.308Z,21.11
2018-08-18T21:34:21.173Z,21.09
2018-08-18T21:36:51.245Z,21.05
2018-08-18T21:39:21.234Z,21.06
2018-08-18T21:41:51.136Z,21.01
2018-08-18T21:44:21.488Z,20.92
2018-08-18T21:46:51.577Z,20.84
2018-08-18T21:49:21.517Z,20.80
2018-08-18T21:51:51.526Z,20.77
2018-08-18T21:54:21.600Z,20.68
2018-08-18T21:56:51.494Z,20.62
2018-08-18T21:59:21.326Z,20.56
2018-08-18T22:01:55.211Z,20.45
2018-08-18T22:04:25.197Z,20.36
2018-08-18T22:06:56.032Z,20.32
2018-08-18T22:09:29.856Z,20.31
2018-08-18T22:11:59.905Z,20.25
2018-08-18T22:14:29.934Z,20.08
2018-08-18T22:16:59.917Z,20.09
2018-08-18T22:19:30.351Z,20.15
2018-08-18T22:22:00.593Z,20.14
2018-08-18T22:24:30.915Z,20.16
2018-08-18T22:27:00.807Z,20.23
2018-08-18T22:29:30.612Z,20.18
2018-08-18T22:32:01.364Z,20.15
2018-08-18T22:34:31.385Z,20.09
2018-08-18T22:37:09.293Z,20.03
2018-08-18T22:39:39.262Z,20.02
2018-08-18T22:42:09.596Z,19.93
2018-08-18T22:44:40.025Z,19.86
2018-08-18T22:47:10.319Z,19.86
2018-08-18T22:49:40.228Z,19.90
2018-08-18T22:52:10.516Z,19.91
2018-08-18T22:54:40.588Z,19.85
2018-08-18T22:57:13.695Z,19.81
2018-08-18T22:59:43.913Z,19.75
2018-08-18T23:02:13.863Z,19.69
2018-08-18T23:04:43.845Z,19.64
2018-08-18T23:07:13.888Z,19.58
2018-08-18T23:09:43.888Z,19.52
2018-08-18T23:12:13.800Z,19.44
2018-08-18T23:14:43.796Z,19.38
2018-08-18T23:17:13.804Z,19.43
2018-08-18T23:19:43.687Z,19.41
2018-08-18T23:22:30.417Z,19.49
2018-08-18T23:25:00.479Z,19.50
2018-08-18T23:27:30.772Z,19.50
2018-08-18T23:30:00.852Z,19.58
2018-08-18T23:32:30.767Z,19.58
2018-08-18T23:35:00.890Z,19.52
2018-08-18T23:37:30.845Z,19.55
2018-08-18T23:40:00.935Z,19.62
2018-08-18T23:42:31.026Z,19.50
2018-08-18T23:45:01.021Z,19.49
2018-08-18T23:47:30.936Z,19.41
2018-08-18T23:50:00.848Z,19.36
2018-08-18T23:52:31.137Z,19.27
2018-08-18T23:55:01.142Z,19.27
2018-08-18T23:57:31.109Z,19.24
